PIA785 OPIS-EGLL
Flight info
| Callsign | PIA785 |
|---|---|
| Flight time | N/A |
| Altitude | 26000 |
| Route | KALMI J139 HANGU G796 LAJAK/N0499F320 L509 TAPIS M875 AMDAR/K0920F320 T186 LAPZE Z407 ODIVA DCT URL/K0913F340 DCT ARISA L736 ASKIL L979 GRD L32 SOTET/N0484F340 DCT BINKA L23 BERIM DCT STADE L23 WSN N125 BLUFA DCT ABNED L980 LOGAN |
| Aircraft | B77W/H-SDE1E2E3FGHIJ2J3J4J5M1RWXY/LB1D1 |
Departure
| Time | 2026-04-24 10:52 |
|---|---|
| Airport | Islamabad International Airport (OPIS) |
Arrival
| Time | N/A |
|---|---|
| Airport | London Heathrow Airport (EGLL) |
| Time | Latitude | Longitude | Altitude | Speed | Heading |
|---|---|---|---|---|---|
| 2026-04-24 10:27 | 33.55433 | 72.83355 | 1777 ft | 0 kts | 10° |
| 2026-04-24 10:39 | 33.55427 | 72.83353 | 1778 ft | 4 kts | 8° |
| 2026-04-24 10:40 | 33.55400 | 72.83351 | 1773 ft | 4 kts | 354° |
| 2026-04-24 10:40 | 33.55374 | 72.83358 | 1774 ft | 4 kts | 333° |
| 2026-04-24 10:40 | 33.55354 | 72.83376 | 1775 ft | 4 kts | 295° |
| 2026-04-24 10:40 | 33.55351 | 72.83387 | 1773 ft | 0 kts | 280° |
| 2026-04-24 10:43 | 33.55351 | 72.83382 | 1773 ft | 1 kts | 280° |
| 2026-04-24 10:43 | 33.55354 | 72.83368 | 1774 ft | 2 kts | 281° |
| 2026-04-24 10:43 | 33.55357 | 72.83344 | 1776 ft | 4 kts | 279° |
| 2026-04-24 10:43 | 33.55351 | 72.83295 | 1775 ft | 8 kts | 250° |
| 2026-04-24 10:44 | 33.55318 | 72.83225 | 1778 ft | 11 kts | 236° |
| 2026-04-24 10:44 | 33.55267 | 72.83135 | 1778 ft | 15 kts | 236° |
| 2026-04-24 10:44 | 33.55201 | 72.83025 | 1778 ft | 16 kts | 223° |
| 2026-04-24 10:44 | 33.55123 | 72.83066 | 1775 ft | 16 kts | 109° |
| 2026-04-24 10:45 | 33.55099 | 72.83209 | 1775 ft | 19 kts | 100° |
| 2026-04-24 10:45 | 33.55074 | 72.83375 | 1774 ft | 22 kts | 100° |
| 2026-04-24 10:45 | 33.55045 | 72.83565 | 1773 ft | 24 kts | 100° |
| 2026-04-24 10:45 | 33.55013 | 72.83775 | 1774 ft | 27 kts | 100° |
| 2026-04-24 10:46 | 33.54978 | 72.84007 | 1774 ft | 29 kts | 101° |
| 2026-04-24 10:46 | 33.54938 | 72.84257 | 1774 ft | 31 kts | 100° |
| 2026-04-24 10:46 | 33.54911 | 72.84440 | 1774 ft | 14 kts | 100° |
| 2026-04-24 10:46 | 33.54873 | 72.84542 | 1776 ft | 14 kts | 155° |
| 2026-04-24 10:47 | 33.54813 | 72.84540 | 1774 ft | 0 kts | 189° |
| 2026-04-24 10:48 | 33.54812 | 72.84540 | 1774 ft | 1 kts | 189° |
| 2026-04-24 10:48 | 33.54787 | 72.84535 | 1771 ft | 7 kts | 189° |
| 2026-04-24 10:48 | 33.54717 | 72.84513 | 1768 ft | 12 kts | 216° |
| 2026-04-24 10:49 | 33.54708 | 72.84447 | 1771 ft | 0 kts | 279° |
| 2026-04-24 10:50 | 33.54709 | 72.84436 | 1770 ft | 0 kts | 279° |
| 2026-04-24 10:50 | 33.54710 | 72.84433 | 1770 ft | 0 kts | 279° |
| 2026-04-24 10:51 | 33.54714 | 72.84402 | 1768 ft | 13 kts | 280° |
| 2026-04-24 10:51 | 33.54771 | 72.84039 | 1767 ft | 84 kts | 281° |
| 2026-04-24 10:51 | 33.54929 | 72.83035 | 1770 ft | 160 kts | 281° |
| 2026-04-24 10:52 | 33.55172 | 72.81457 | 1830 ft | 215 kts | 280° |
| 2026-04-24 10:52 | 33.55426 | 72.79725 | 2885 ft | 209 kts | 283° |
| 2026-04-24 10:52 | 33.55691 | 72.77937 | 3714 ft | 227 kts | 283° |
| 2026-04-24 10:52 | 33.55985 | 72.76048 | 4766 ft | 234 kts | 282° |
| 2026-04-24 10:53 | 33.56285 | 72.74128 | 5916 ft | 236 kts | 281° |
| 2026-04-24 10:53 | 33.56580 | 72.72196 | 7051 ft | 235 kts | 279° |
| 2026-04-24 10:53 | 33.56633 | 72.70288 | 7878 ft | 232 kts | 257° |
| 2026-04-24 10:53 | 33.55818 | 72.68576 | 7985 ft | 250 kts | 221° |
| 2026-04-24 10:54 | 33.54252 | 72.67543 | 8165 ft | 262 kts | 208° |
| 2026-04-24 10:54 | 33.52752 | 72.66268 | 8373 ft | 271 kts | 234° |
| 2026-04-24 10:54 | 33.52044 | 72.64195 | 8747 ft | 273 kts | 268° |
| 2026-04-24 10:54 | 33.52209 | 72.61944 | 9277 ft | 275 kts | 277° |
| 2026-04-24 10:55 | 33.52495 | 72.59635 | 9715 ft | 283 kts | 277° |
| 2026-04-24 10:55 | 33.52787 | 72.57297 | 10316 ft | 286 kts | 276° |
| 2026-04-24 10:55 | 33.53090 | 72.54873 | 10530 ft | 305 kts | 277° |
| 2026-04-24 10:55 | 33.53415 | 72.52278 | 10698 ft | 325 kts | 277° |
| 2026-04-24 10:56 | 33.53761 | 72.49519 | 10849 ft | 345 kts | 277° |
| 2026-04-24 10:56 | 33.54119 | 72.46637 | 11067 ft | 361 kts | 277° |
| 2026-04-24 10:56 | 33.54491 | 72.43615 | 11519 ft | 371 kts | 277° |
| 2026-04-24 10:56 | 33.54828 | 72.40533 | 12107 ft | 375 kts | 273° |
| 2026-04-24 10:57 | 33.54919 | 72.37401 | 12764 ft | 377 kts | 269° |
| 2026-04-24 10:57 | 33.54888 | 72.34247 | 13459 ft | 379 kts | 268° |
| 2026-04-24 10:57 | 33.54839 | 72.31079 | 14102 ft | 382 kts | 268° |
| 2026-04-24 10:57 | 33.54803 | 72.27894 | 14763 ft | 383 kts | 268° |
| 2026-04-24 10:58 | 33.54785 | 72.24699 | 15447 ft | 384 kts | 268° |
| 2026-04-24 10:58 | 33.54779 | 72.21497 | 16130 ft | 385 kts | 268° |
| 2026-04-24 10:58 | 33.54781 | 72.18277 | 16753 ft | 388 kts | 268° |
| 2026-04-24 10:58 | 33.54786 | 72.15025 | 17350 ft | 392 kts | 268° |
| 2026-04-24 10:59 | 33.54791 | 72.11751 | 17968 ft | 394 kts | 268° |
| 2026-04-24 10:59 | 33.54796 | 72.08453 | 18507 ft | 397 kts | 268° |
| 2026-04-24 10:59 | 33.54799 | 72.05132 | 19026 ft | 400 kts | 268° |
| 2026-04-24 10:59 | 33.54789 | 72.01790 | 19547 ft | 402 kts | 266° |
| 2026-04-24 11:00 | 33.54637 | 71.98432 | 20064 ft | 404 kts | 264° |
| 2026-04-24 11:00 | 33.54402 | 71.95065 | 20588 ft | 407 kts | 264° |
| 2026-04-24 11:00 | 33.54169 | 71.91675 | 21090 ft | 410 kts | 264° |
| 2026-04-24 11:00 | 33.53955 | 71.88262 | 21653 ft | 410 kts | 264° |
| 2026-04-24 11:01 | 33.53752 | 71.84852 | 22215 ft | 411 kts | 264° |
| 2026-04-24 11:01 | 33.53552 | 71.81417 | 22677 ft | 415 kts | 264° |
| 2026-04-24 11:01 | 33.53353 | 71.77952 | 23104 ft | 418 kts | 264° |
| 2026-04-24 11:01 | 33.53152 | 71.74469 | 23537 ft | 420 kts | 264° |
| 2026-04-24 11:02 | 33.52948 | 71.70967 | 23931 ft | 423 kts | 264° |
| 2026-04-24 11:02 | 33.52743 | 71.67445 | 24334 ft | 425 kts | 264° |
| 2026-04-24 11:02 | 33.52534 | 71.63909 | 24732 ft | 426 kts | 264° |
| 2026-04-24 11:02 | 33.52324 | 71.60359 | 25131 ft | 428 kts | 264° |
| 2026-04-24 11:03 | 33.52111 | 71.56792 | 25519 ft | 430 kts | 264° |
| 2026-04-24 11:03 | 33.51897 | 71.53208 | 25913 ft | 432 kts | 265° |
| 2026-04-24 11:03 | 33.51682 | 71.49614 | 26291 ft | 434 kts | 265° |
| 2026-04-24 11:03 | 33.51463 | 71.46001 | 26670 ft | 436 kts | 265° |
| 2026-04-24 11:04 | 33.51242 | 71.42373 | 27027 ft | 438 kts | 265° |
| 2026-04-24 11:04 | 33.51016 | 71.38730 | 27386 ft | 440 kts | 265° |
| 2026-04-24 11:04 | 33.50788 | 71.35070 | 27735 ft | 442 kts | 265° |
| 2026-04-24 11:04 | 33.50561 | 71.31438 | 28045 ft | 444 kts | 265° |
| 2026-04-24 11:05 | 33.50330 | 71.27741 | 28349 ft | 446 kts | 265° |
| 2026-04-24 11:05 | 33.50097 | 71.24030 | 28665 ft | 448 kts | 265° |
| 2026-04-24 11:05 | 33.49861 | 71.20304 | 28977 ft | 449 kts | 265° |
| 2026-04-24 11:05 | 33.49625 | 71.16567 | 29259 ft | 451 kts | 265° |
| 2026-04-24 11:06 | 33.49387 | 71.12809 | 29527 ft | 454 kts | 265° |
| 2026-04-24 11:06 | 33.49145 | 71.09040 | 29831 ft | 454 kts | 265° |
| 2026-04-24 11:06 | 33.49059 | 71.05284 | 30090 ft | 453 kts | 275° |
| 2026-04-24 11:06 | 33.49800 | 71.01600 | 30269 ft | 459 kts | 289° |
| 2026-04-24 11:07 | 33.53239 | 70.95033 | 30475 ft | 478 kts | 311° |
| 2026-04-24 11:07 | 33.55673 | 70.92301 | 30735 ft | 480 kts | 313° |
| 2026-04-24 11:07 | 33.58151 | 70.89620 | 31048 ft | 480 kts | 314° |
| 2026-04-24 11:08 | 33.60622 | 70.86946 | 31428 ft | 475 kts | 313° |
| 2026-04-24 11:08 | 33.63039 | 70.84299 | 31954 ft | 470 kts | 313° |
| 2026-04-24 11:08 | 33.67826 | 70.78946 | 31955 ft | 469 kts | 312° |
| 2026-04-24 11:09 | 33.72565 | 70.73579 | 31972 ft | 469 kts | 311° |
| 2026-04-24 11:09 | 33.77330 | 70.68165 | 31947 ft | 473 kts | 311° |
| 2026-04-24 11:10 | 33.82126 | 70.62718 | 31972 ft | 475 kts | 311° |
| 2026-04-24 11:10 | 33.86948 | 70.57239 | 31982 ft | 478 kts | 312° |
| 2026-04-24 11:11 | 33.91639 | 70.51628 | 31990 ft | 470 kts | 305° |
| 2026-04-24 11:11 | 33.95384 | 70.45374 | 31977 ft | 460 kts | 296° |
| 2026-04-24 11:12 | 33.98369 | 70.38612 | 31995 ft | 457 kts | 293° |
| 2026-04-24 11:12 | 34.01325 | 70.31814 | 32006 ft | 459 kts | 294° |
| 2026-04-24 11:13 | 34.04318 | 70.24981 | 31988 ft | 462 kts | 294° |
| 2026-04-24 11:13 | 34.07327 | 70.18133 | 32023 ft | 460 kts | 294° |
| 2026-04-24 11:14 | 34.10277 | 70.11392 | 32016 ft | 451 kts | 294° |
| 2026-04-24 11:14 | 34.13223 | 70.04641 | 31996 ft | 458 kts | 294° |
| 2026-04-24 11:15 | 34.16202 | 69.97817 | 32008 ft | 461 kts | 294° |
| 2026-04-24 11:15 | 34.18679 | 69.92121 | 32023 ft | 461 kts | 294° |
| 2026-04-24 11:16 | 34.21650 | 69.85254 | 32021 ft | 460 kts | 294° |
| 2026-04-24 11:16 | 34.24583 | 69.78463 | 32030 ft | 452 kts | 294° |
| 2026-04-24 11:17 | 34.27493 | 69.71709 | 32036 ft | 453 kts | 294° |
| 2026-04-24 11:17 | 34.30406 | 69.64929 | 32054 ft | 455 kts | 294° |
| 2026-04-24 11:18 | 34.33322 | 69.58134 | 32015 ft | 455 kts | 294° |
| 2026-04-24 11:18 | 34.36235 | 69.51338 | 32027 ft | 455 kts | 294° |
| 2026-04-24 11:19 | 34.39141 | 69.44539 | 32004 ft | 455 kts | 294° |
| 2026-04-24 11:19 | 34.42045 | 69.37733 | 32012 ft | 455 kts | 294° |
| 2026-04-24 11:20 | 34.44944 | 69.30922 | 32015 ft | 455 kts | 294° |
| 2026-04-24 11:20 | 34.47839 | 69.24110 | 32022 ft | 455 kts | 294° |
| 2026-04-24 11:21 | 34.51060 | 69.17508 | 32008 ft | 460 kts | 306° |
| 2026-04-24 11:21 | 34.55830 | 69.12250 | 32023 ft | 470 kts | 322° |
| 2026-04-24 11:22 | 34.61608 | 69.08428 | 32023 ft | 475 kts | 328° |
| 2026-04-24 11:22 | 34.67479 | 69.04752 | 32026 ft | 475 kts | 327° |
| 2026-04-24 11:23 | 34.73290 | 69.01050 | 32013 ft | 475 kts | 327° |
| 2026-04-24 11:23 | 34.79113 | 68.97290 | 32044 ft | 473 kts | 327° |
| 2026-04-24 11:24 | 34.84902 | 68.93525 | 32044 ft | 472 kts | 327° |
| 2026-04-24 11:24 | 34.90715 | 68.89743 | 32055 ft | 474 kts | 327° |
| 2026-04-24 11:25 | 34.96528 | 68.85953 | 32085 ft | 474 kts | 327° |
| 2026-04-24 11:25 | 35.02347 | 68.82155 | 32079 ft | 474 kts | 327° |
| 2026-04-24 11:26 | 35.08166 | 68.78355 | 32090 ft | 475 kts | 327° |
| 2026-04-24 11:26 | 35.13991 | 68.74541 | 32093 ft | 475 kts | 327° |
| 2026-04-24 11:27 | 35.19817 | 68.70720 | 32067 ft | 475 kts | 327° |
| 2026-04-24 11:27 | 35.25626 | 68.66909 | 32074 ft | 473 kts | 327° |
| 2026-04-24 11:28 | 35.31418 | 68.63098 | 32061 ft | 473 kts | 327° |
| 2026-04-24 11:28 | 35.37207 | 68.59286 | 32079 ft | 473 kts | 327° |
| 2026-04-24 11:29 | 35.43013 | 68.55448 | 32049 ft | 475 kts | 327° |
| 2026-04-24 11:29 | 35.48843 | 68.51593 | 32041 ft | 476 kts | 327° |
| 2026-04-24 11:30 | 35.54660 | 68.47745 | 32022 ft | 475 kts | 327° |
| 2026-04-24 11:30 | 35.60473 | 68.43887 | 32036 ft | 475 kts | 327° |
| 2026-04-24 11:31 | 35.66237 | 68.40043 | 32029 ft | 474 kts | 327° |
| 2026-04-24 11:31 | 35.72027 | 68.36157 | 32053 ft | 475 kts | 326° |
| 2026-04-24 11:32 | 35.77886 | 68.32214 | 32066 ft | 485 kts | 327° |
| 2026-04-24 11:32 | 35.83827 | 68.28217 | 32053 ft | 486 kts | 327° |
| 2026-04-24 11:33 | 35.84830 | 68.27542 | 32058 ft | 486 kts | 327° |
| 2026-04-24 11:34 | 35.85735 | 68.26934 | 32051 ft | 486 kts | 327° |
| 2026-04-24 11:35 | 35.90860 | 68.23482 | 32045 ft | 487 kts | 326° |
| 2026-04-24 11:36 | 35.96801 | 68.19473 | 32042 ft | 487 kts | 326° |
| 2026-04-24 11:36 | 36.02742 | 68.15456 | 32037 ft | 486 kts | 326° |
| 2026-04-24 11:37 | 36.08669 | 68.11442 | 32019 ft | 486 kts | 326° |
| 2026-04-24 11:37 | 36.14550 | 68.07451 | 32014 ft | 486 kts | 326° |
| 2026-04-24 11:38 | 36.20475 | 68.03423 | 32005 ft | 486 kts | 326° |
| 2026-04-24 11:38 | 36.26401 | 67.99386 | 31978 ft | 486 kts | 326° |
| 2026-04-24 11:39 | 36.32322 | 67.95348 | 31955 ft | 486 kts | 326° |
| 2026-04-24 11:39 | 36.38245 | 67.91299 | 31967 ft | 487 kts | 325° |
| 2026-04-24 11:40 | 36.44187 | 67.87232 | 31959 ft | 488 kts | 326° |
| 2026-04-24 11:40 | 36.50132 | 67.83156 | 31930 ft | 488 kts | 325° |
| 2026-04-24 11:41 | 36.56080 | 67.79069 | 31938 ft | 489 kts | 325° |
| 2026-04-24 11:41 | 36.62014 | 67.74986 | 31937 ft | 487 kts | 325° |
| 2026-04-24 11:42 | 36.67956 | 67.70887 | 31922 ft | 489 kts | 325° |
| 2026-04-24 11:42 | 36.73899 | 67.66785 | 31922 ft | 488 kts | 325° |
| 2026-04-24 11:43 | 36.79849 | 67.62691 | 31908 ft | 488 kts | 325° |
| 2026-04-24 11:43 | 36.85794 | 67.58596 | 31894 ft | 488 kts | 325° |
| 2026-04-24 11:44 | 36.91738 | 67.54491 | 31893 ft | 488 kts | 325° |
| 2026-04-24 11:44 | 36.97676 | 67.50381 | 31889 ft | 487 kts | 324° |
| 2026-04-24 11:45 | 37.03594 | 67.46277 | 31878 ft | 486 kts | 324° |
| 2026-04-24 11:45 | 37.09491 | 67.42179 | 31872 ft | 484 kts | 324° |
| 2026-04-24 11:46 | 37.15331 | 67.38115 | 31881 ft | 483 kts | 324° |
| 2026-04-24 11:46 | 37.21364 | 67.34349 | 31878 ft | 489 kts | 332° |
| 2026-04-24 11:47 | 37.27899 | 67.31810 | 31886 ft | 491 kts | 336° |
| 2026-04-24 11:47 | 37.34104 | 67.28476 | 31921 ft | 482 kts | 326° |
| 2026-04-24 11:48 | 37.40035 | 67.24513 | 31889 ft | 483 kts | 325° |
| 2026-04-24 11:48 | 37.45992 | 67.20557 | 31890 ft | 485 kts | 326° |
| 2026-04-24 11:49 | 37.51973 | 67.16645 | 31885 ft | 484 kts | 326° |
| 2026-04-24 11:49 | 37.57955 | 67.12739 | 31895 ft | 484 kts | 326° |
| 2026-04-24 11:50 | 37.63921 | 67.08833 | 31888 ft | 482 kts | 326° |
| 2026-04-24 11:50 | 37.69831 | 67.04872 | 31898 ft | 478 kts | 322° |
| 2026-04-24 11:51 | 37.75292 | 67.00198 | 31927 ft | 473 kts | 319° |
| 2026-04-24 11:51 | 37.80685 | 66.95427 | 31929 ft | 473 kts | 319° |
| 2026-04-24 11:52 | 37.86098 | 66.90684 | 31942 ft | 473 kts | 319° |
| 2026-04-24 11:52 | 37.91527 | 66.85946 | 31989 ft | 475 kts | 319° |
| 2026-04-24 11:53 | 37.96968 | 66.81188 | 31985 ft | 475 kts | 319° |
| 2026-04-24 11:53 | 38.02406 | 66.76425 | 31996 ft | 475 kts | 319° |
| 2026-04-24 11:54 | 38.07840 | 66.71652 | 31986 ft | 475 kts | 319° |
| 2026-04-24 11:54 | 38.13234 | 66.66909 | 32001 ft | 475 kts | 319° |
| 2026-04-24 11:55 | 38.18668 | 66.62124 | 31977 ft | 475 kts | 319° |
| 2026-04-24 11:55 | 38.24102 | 66.57328 | 31979 ft | 475 kts | 319° |
| 2026-04-24 11:56 | 38.29527 | 66.52530 | 31997 ft | 474 kts | 319° |
| 2026-04-24 11:56 | 38.34934 | 66.47741 | 31972 ft | 472 kts | 319° |
| 2026-04-24 11:57 | 38.40321 | 66.42960 | 31942 ft | 471 kts | 319° |
| 2026-04-24 11:57 | 38.45682 | 66.38192 | 31963 ft | 470 kts | 319° |
| 2026-04-24 11:58 | 38.51040 | 66.33416 | 31936 ft | 470 kts | 319° |
| 2026-04-24 11:58 | 38.56403 | 66.28627 | 31932 ft | 471 kts | 319° |
| 2026-04-24 11:59 | 38.61910 | 66.24040 | 31924 ft | 476 kts | 326° |
| 2026-04-24 11:59 | 38.68029 | 66.20610 | 31927 ft | 483 kts | 333° |
| 2026-04-24 12:00 | 38.74328 | 66.17590 | 31919 ft | 484 kts | 333° |
| 2026-04-24 12:00 | 38.80622 | 66.14539 | 31918 ft | 484 kts | 333° |
| 2026-04-24 12:01 | 38.86906 | 66.11446 | 31918 ft | 484 kts | 333° |
| 2026-04-24 12:01 | 38.93180 | 66.08340 | 31914 ft | 483 kts | 333° |
| 2026-04-24 12:02 | 38.99447 | 66.05232 | 31918 ft | 482 kts | 333° |
| 2026-04-24 12:02 | 39.05707 | 66.02123 | 31928 ft | 482 kts | 333° |
| 2026-04-24 12:03 | 39.11919 | 65.99032 | 31921 ft | 482 kts | 333° |
| 2026-04-24 12:03 | 39.18168 | 65.95917 | 31917 ft | 481 kts | 333° |
| 2026-04-24 12:04 | 39.24415 | 65.92797 | 31940 ft | 481 kts | 333° |
| 2026-04-24 12:04 | 39.30661 | 65.89672 | 31938 ft | 481 kts | 333° |
| 2026-04-24 12:05 | 39.36903 | 65.86544 | 31934 ft | 481 kts | 333° |
| 2026-04-24 12:05 | 39.43138 | 65.83412 | 31928 ft | 481 kts | 333° |
| 2026-04-24 12:06 | 39.48319 | 65.80805 | 31934 ft | 480 kts | 333° |
| 2026-04-24 12:06 | 39.54547 | 65.77665 | 31937 ft | 480 kts | 333° |
| 2026-04-24 12:07 | 39.60773 | 65.74519 | 31952 ft | 480 kts | 333° |
| 2026-04-24 12:07 | 39.66996 | 65.71369 | 31941 ft | 480 kts | 333° |
| 2026-04-24 12:08 | 39.73221 | 65.68213 | 31937 ft | 480 kts | 333° |
| 2026-04-24 12:08 | 39.79438 | 65.65054 | 31951 ft | 480 kts | 333° |
| 2026-04-24 12:09 | 39.85657 | 65.61889 | 31941 ft | 480 kts | 333° |
| 2026-04-24 12:09 | 39.91868 | 65.58720 | 31935 ft | 479 kts | 333° |
| 2026-04-24 12:10 | 39.98067 | 65.55551 | 31955 ft | 478 kts | 333° |
| 2026-04-24 12:11 | 40.07357 | 65.50788 | 31948 ft | 478 kts | 333° |
| 2026-04-24 12:11 | 40.13538 | 65.47596 | 31965 ft | 478 kts | 333° |
| 2026-04-24 12:12 | 40.19725 | 65.44392 | 31942 ft | 478 kts | 333° |
| 2026-04-24 12:12 | 40.25918 | 65.41180 | 31938 ft | 479 kts | 333° |
| 2026-04-24 12:13 | 40.32112 | 65.37962 | 31950 ft | 479 kts | 333° |
| 2026-04-24 12:13 | 40.38267 | 65.34759 | 31931 ft | 479 kts | 333° |
| 2026-04-24 12:14 | 40.44457 | 65.31530 | 31938 ft | 479 kts | 333° |
| 2026-04-24 12:14 | 40.50646 | 65.28296 | 31931 ft | 478 kts | 333° |
| 2026-04-24 12:15 | 40.56826 | 65.25060 | 31929 ft | 478 kts | 333° |
| 2026-04-24 12:15 | 40.63001 | 65.21835 | 31925 ft | 477 kts | 333° |
| 2026-04-24 12:16 | 40.69173 | 65.18607 | 31933 ft | 477 kts | 334° |
| 2026-04-24 12:16 | 40.75342 | 65.15371 | 31910 ft | 477 kts | 334° |
| 2026-04-24 12:17 | 40.81507 | 65.12131 | 31910 ft | 477 kts | 334° |
| 2026-04-24 12:17 | 40.87670 | 65.08885 | 31923 ft | 477 kts | 334° |
| 2026-04-24 12:18 | 40.93837 | 65.05639 | 31912 ft | 477 kts | 334° |
| 2026-04-24 12:18 | 41.00001 | 65.02389 | 31912 ft | 477 kts | 334° |
| 2026-04-24 12:19 | 41.06162 | 64.99133 | 31916 ft | 477 kts | 334° |
| 2026-04-24 12:19 | 41.12322 | 64.95870 | 31914 ft | 477 kts | 334° |
| 2026-04-24 12:20 | 41.18482 | 64.92600 | 31914 ft | 477 kts | 334° |
| 2026-04-24 12:20 | 41.24637 | 64.89326 | 31918 ft | 476 kts | 334° |
| 2026-04-24 12:21 | 41.30786 | 64.86044 | 31912 ft | 476 kts | 334° |
| 2026-04-24 12:21 | 41.36928 | 64.82759 | 31916 ft | 476 kts | 334° |
| 2026-04-24 12:22 | 41.43064 | 64.79470 | 31925 ft | 475 kts | 334° |
| 2026-04-24 12:22 | 41.49193 | 64.76179 | 31922 ft | 474 kts | 334° |
| 2026-04-24 12:23 | 41.55270 | 64.72909 | 31925 ft | 474 kts | 334° |
| 2026-04-24 12:23 | 41.61377 | 64.69615 | 31915 ft | 473 kts | 334° |
| 2026-04-24 12:24 | 41.67474 | 64.66320 | 31919 ft | 472 kts | 334° |
| 2026-04-24 12:24 | 41.73563 | 64.63023 | 31928 ft | 472 kts | 334° |
| 2026-04-24 12:25 | 41.79638 | 64.59699 | 31912 ft | 471 kts | 334° |
| 2026-04-24 12:25 | 41.85682 | 64.56303 | 31911 ft | 471 kts | 333° |
| 2026-04-24 12:26 | 41.91717 | 64.52899 | 31923 ft | 470 kts | 334° |
| 2026-04-24 12:26 | 41.97750 | 64.49500 | 31912 ft | 470 kts | 334° |
| 2026-04-24 12:27 | 42.03782 | 64.46100 | 31910 ft | 470 kts | 334° |
| 2026-04-24 12:27 | 42.09808 | 64.42696 | 31910 ft | 469 kts | 334° |
| 2026-04-24 12:28 | 42.15825 | 64.39291 | 31905 ft | 469 kts | 334° |
| 2026-04-24 12:28 | 42.21789 | 64.35908 | 31908 ft | 468 kts | 334° |
| 2026-04-24 12:29 | 42.27784 | 64.32500 | 31913 ft | 467 kts | 334° |
| 2026-04-24 12:29 | 42.33776 | 64.29086 | 31912 ft | 467 kts | 334° |
| 2026-04-24 12:30 | 42.39771 | 64.25664 | 31922 ft | 468 kts | 334° |
| 2026-04-24 12:30 | 42.45762 | 64.22239 | 31917 ft | 467 kts | 334° |
| 2026-04-24 12:31 | 42.51771 | 64.18869 | 31911 ft | 467 kts | 334° |
| 2026-04-24 12:31 | 42.57684 | 64.15258 | 31921 ft | 464 kts | 327° |
| 2026-04-24 12:32 | 42.62996 | 64.10385 | 31911 ft | 459 kts | 317° |
| 2026-04-24 12:32 | 42.67812 | 64.04718 | 31912 ft | 458 kts | 316° |
| 2026-04-24 12:33 | 42.72604 | 63.99022 | 31916 ft | 457 kts | 316° |
| 2026-04-24 12:33 | 42.77402 | 63.93339 | 31909 ft | 457 kts | 317° |
| 2026-04-24 12:34 | 42.82204 | 63.87667 | 31908 ft | 457 kts | 317° |
| 2026-04-24 12:34 | 42.87002 | 63.81995 | 31901 ft | 456 kts | 317° |
| 2026-04-24 12:35 | 42.91792 | 63.76320 | 31903 ft | 456 kts | 317° |
| 2026-04-24 12:35 | 42.96574 | 63.70643 | 31901 ft | 455 kts | 317° |
| 2026-04-24 12:36 | 43.01350 | 63.64960 | 31900 ft | 455 kts | 317° |
| 2026-04-24 12:36 | 43.06115 | 63.59278 | 31910 ft | 454 kts | 316° |
| 2026-04-24 12:37 | 43.10874 | 63.53590 | 31891 ft | 454 kts | 316° |
| 2026-04-24 12:37 | 43.15626 | 63.47898 | 31878 ft | 454 kts | 316° |
| 2026-04-24 12:38 | 43.20372 | 63.42202 | 31888 ft | 453 kts | 316° |
| 2026-04-24 12:38 | 43.25109 | 63.36505 | 31886 ft | 453 kts | 316° |
| 2026-04-24 12:39 | 43.34564 | 63.25096 | 31901 ft | 452 kts | 316° |
| 2026-04-24 12:40 | 43.39282 | 63.19384 | 31886 ft | 452 kts | 316° |
| 2026-04-24 12:40 | 43.43993 | 63.13669 | 31885 ft | 451 kts | 316° |
| 2026-04-24 12:41 | 43.48698 | 63.07947 | 31885 ft | 451 kts | 316° |
| 2026-04-24 12:41 | 43.53401 | 63.02218 | 31886 ft | 451 kts | 316° |
| 2026-04-24 12:42 | 43.58097 | 62.96482 | 31879 ft | 451 kts | 315° |
| 2026-04-24 12:42 | 43.62791 | 62.90738 | 31881 ft | 451 kts | 315° |
| 2026-04-24 12:43 | 43.67451 | 62.85023 | 31890 ft | 451 kts | 315° |
| 2026-04-24 12:43 | 43.72139 | 62.79261 | 31880 ft | 451 kts | 315° |
| 2026-04-24 12:44 | 43.76826 | 62.73487 | 31877 ft | 451 kts | 315° |
| 2026-04-24 12:44 | 43.81509 | 62.67705 | 31876 ft | 451 kts | 315° |
| 2026-04-24 12:45 | 43.86191 | 62.61913 | 31876 ft | 451 kts | 315° |
| 2026-04-24 12:45 | 43.90867 | 62.56115 | 31874 ft | 451 kts | 315° |
| 2026-04-24 12:46 | 43.95541 | 62.50307 | 31896 ft | 451 kts | 315° |
| 2026-04-24 12:46 | 44.00212 | 62.44490 | 31873 ft | 451 kts | 315° |
| 2026-04-24 12:47 | 44.04876 | 62.38669 | 31872 ft | 450 kts | 314° |
| 2026-04-24 12:47 | 44.09531 | 62.32847 | 31881 ft | 450 kts | 314° |
| 2026-04-24 12:48 | 44.14178 | 62.27020 | 31874 ft | 449 kts | 314° |
| 2026-04-24 12:48 | 44.18819 | 62.21189 | 31873 ft | 449 kts | 314° |
| 2026-04-24 12:49 | 44.23458 | 62.15348 | 31875 ft | 449 kts | 314° |
| 2026-04-24 12:49 | 44.28092 | 62.09499 | 31887 ft | 449 kts | 314° |
| 2026-04-24 12:50 | 44.32726 | 62.03635 | 31863 ft | 450 kts | 314° |
| 2026-04-24 12:50 | 44.37362 | 61.97759 | 31865 ft | 450 kts | 314° |
| 2026-04-24 12:51 | 44.42000 | 61.91869 | 31858 ft | 451 kts | 314° |
| 2026-04-24 12:51 | 44.46643 | 61.85957 | 31866 ft | 451 kts | 313° |
| 2026-04-24 12:52 | 44.51285 | 61.80032 | 31859 ft | 452 kts | 313° |
| 2026-04-24 12:52 | 44.55894 | 61.74137 | 31860 ft | 451 kts | 313° |
| 2026-04-24 12:53 | 44.60528 | 61.68198 | 31868 ft | 451 kts | 313° |
| 2026-04-24 12:53 | 44.65157 | 61.62250 | 31855 ft | 451 kts | 313° |
| 2026-04-24 12:54 | 44.69782 | 61.56293 | 31853 ft | 451 kts | 313° |
| 2026-04-24 12:54 | 44.74400 | 61.50333 | 31857 ft | 451 kts | 313° |
| 2026-04-24 12:55 | 44.78237 | 61.45370 | 31857 ft | 451 kts | 313° |
| 2026-04-24 12:55 | 44.82854 | 61.39386 | 31854 ft | 451 kts | 313° |
| 2026-04-24 12:56 | 44.87465 | 61.33396 | 31857 ft | 451 kts | 313° |
| 2026-04-24 12:56 | 44.92075 | 61.27394 | 31862 ft | 451 kts | 312° |
| 2026-04-24 12:57 | 44.96688 | 61.21374 | 31852 ft | 452 kts | 312° |
| 2026-04-24 12:57 | 45.01303 | 61.15337 | 31853 ft | 452 kts | 312° |
| 2026-04-24 12:58 | 45.05915 | 61.09291 | 31851 ft | 452 kts | 312° |
| 2026-04-24 12:58 | 45.10529 | 61.03228 | 31852 ft | 453 kts | 312° |
| 2026-04-24 12:59 | 45.15145 | 60.97149 | 31847 ft | 453 kts | 312° |
| 2026-04-24 12:59 | 45.19759 | 60.91057 | 31846 ft | 453 kts | 312° |
| 2026-04-24 13:00 | 45.24372 | 60.84954 | 31858 ft | 453 kts | 311° |
| 2026-04-24 13:00 | 45.28978 | 60.78845 | 31856 ft | 453 kts | 311° |
| 2026-04-24 13:01 | 45.33579 | 60.72729 | 31839 ft | 453 kts | 311° |
| 2026-04-24 13:01 | 45.38171 | 60.66609 | 31837 ft | 452 kts | 311° |
| 2026-04-24 13:02 | 45.42727 | 60.60525 | 31839 ft | 452 kts | 311° |
| 2026-04-24 13:02 | 45.47310 | 60.54390 | 31856 ft | 452 kts | 311° |
| 2026-04-24 13:03 | 45.51888 | 60.48246 | 31843 ft | 452 kts | 311° |
| 2026-04-24 13:03 | 45.56464 | 60.42092 | 31857 ft | 452 kts | 311° |
| 2026-04-24 13:04 | 45.61041 | 60.35920 | 31844 ft | 453 kts | 311° |
| 2026-04-24 13:04 | 45.65621 | 60.29730 | 31848 ft | 453 kts | 311° |
| 2026-04-24 13:05 | 45.70202 | 60.23526 | 31836 ft | 454 kts | 311° |
| 2026-04-24 13:05 | 45.74782 | 60.17307 | 31850 ft | 454 kts | 311° |
| 2026-04-24 13:06 | 45.79364 | 60.11070 | 31838 ft | 455 kts | 311° |
| 2026-04-24 13:06 | 45.83945 | 60.04821 | 31839 ft | 455 kts | 311° |
| 2026-04-24 13:07 | 45.88521 | 59.98564 | 31846 ft | 455 kts | 310° |
| 2026-04-24 13:07 | 45.93101 | 59.92285 | 31835 ft | 455 kts | 310° |
| 2026-04-24 13:08 | 45.97681 | 59.85991 | 31833 ft | 456 kts | 310° |
| 2026-04-24 13:08 | 46.02261 | 59.79683 | 31822 ft | 456 kts | 310° |
| 2026-04-24 13:09 | 46.09136 | 59.70183 | 31824 ft | 457 kts | 310° |
| 2026-04-24 13:09 | 46.13726 | 59.63822 | 31817 ft | 458 kts | 310° |
| 2026-04-24 13:10 | 46.18316 | 59.57446 | 31821 ft | 458 kts | 310° |
| 2026-04-24 13:10 | 46.22880 | 59.51090 | 31811 ft | 459 kts | 310° |
| 2026-04-24 13:11 | 46.27478 | 59.44672 | 31812 ft | 460 kts | 310° |
| 2026-04-24 13:11 | 46.32075 | 59.38239 | 31805 ft | 460 kts | 310° |
| 2026-04-24 13:12 | 46.36670 | 59.31792 | 31826 ft | 460 kts | 310° |
| 2026-04-24 13:12 | 46.41268 | 59.25325 | 31807 ft | 461 kts | 310° |
| 2026-04-24 13:13 | 46.45873 | 59.18832 | 31804 ft | 462 kts | 310° |
| 2026-04-24 13:13 | 46.50486 | 59.12312 | 31799 ft | 464 kts | 310° |
| 2026-04-24 13:14 | 46.55111 | 59.05759 | 31803 ft | 465 kts | 309° |
| 2026-04-24 13:14 | 46.59747 | 58.99174 | 31790 ft | 467 kts | 309° |
| 2026-04-24 13:15 | 46.64387 | 58.92566 | 31794 ft | 467 kts | 309° |
| 2026-04-24 13:15 | 46.69031 | 58.85937 | 31784 ft | 467 kts | 309° |
| 2026-04-24 13:16 | 46.73670 | 58.79297 | 31783 ft | 468 kts | 309° |
| 2026-04-24 13:16 | 46.78306 | 58.72646 | 31777 ft | 467 kts | 309° |
| 2026-04-24 13:17 | 46.82928 | 58.65996 | 31769 ft | 466 kts | 309° |
| 2026-04-24 13:17 | 46.87545 | 58.59338 | 31790 ft | 466 kts | 309° |
| 2026-04-24 13:18 | 46.92155 | 58.52670 | 31768 ft | 466 kts | 309° |
| 2026-04-24 13:18 | 46.96733 | 58.46033 | 31762 ft | 466 kts | 308° |
| 2026-04-24 13:19 | 47.01334 | 58.39346 | 31762 ft | 466 kts | 308° |
| 2026-04-24 13:19 | 47.05934 | 58.32644 | 31760 ft | 466 kts | 308° |
| 2026-04-24 13:20 | 47.10527 | 58.25933 | 31755 ft | 466 kts | 308° |
| 2026-04-24 13:20 | 47.15118 | 58.19208 | 31751 ft | 466 kts | 308° |
| 2026-04-24 13:21 | 47.19707 | 58.12468 | 31772 ft | 466 kts | 308° |
| 2026-04-24 13:21 | 47.24296 | 58.05711 | 31759 ft | 467 kts | 308° |
| 2026-04-24 13:22 | 47.28885 | 57.98937 | 31755 ft | 467 kts | 308° |
| 2026-04-24 13:22 | 47.33470 | 57.92151 | 31743 ft | 467 kts | 308° |
| 2026-04-24 13:23 | 47.38051 | 57.85355 | 31748 ft | 468 kts | 308° |
| 2026-04-24 13:23 | 47.42632 | 57.78539 | 31751 ft | 467 kts | 308° |
| 2026-04-24 13:24 | 47.47207 | 57.71714 | 31746 ft | 467 kts | 308° |
| 2026-04-24 13:24 | 47.51780 | 57.64875 | 31746 ft | 467 kts | 308° |
| 2026-04-24 13:25 | 47.56350 | 57.58020 | 31757 ft | 468 kts | 307° |
| 2026-04-24 13:25 | 47.60928 | 57.51138 | 31748 ft | 469 kts | 307° |
| 2026-04-24 13:26 | 47.65499 | 57.44247 | 31746 ft | 469 kts | 307° |
| 2026-04-24 13:26 | 47.70067 | 57.37343 | 31774 ft | 469 kts | 307° |
| 2026-04-24 13:27 | 47.74640 | 57.30413 | 31761 ft | 470 kts | 307° |
| 2026-04-24 13:27 | 47.79211 | 57.23466 | 31751 ft | 470 kts | 307° |
| 2026-04-24 13:28 | 47.83749 | 57.16553 | 31752 ft | 470 kts | 307° |
| 2026-04-24 13:28 | 47.88307 | 57.09590 | 31749 ft | 470 kts | 307° |
| 2026-04-24 13:29 | 47.92864 | 57.02609 | 31754 ft | 469 kts | 307° |
| 2026-04-24 13:29 | 47.97411 | 56.95624 | 31757 ft | 469 kts | 306° |
| 2026-04-24 13:30 | 48.01952 | 56.88631 | 31754 ft | 469 kts | 306° |
| 2026-04-24 13:30 | 48.06493 | 56.81618 | 31776 ft | 470 kts | 306° |
| 2026-04-24 13:31 | 48.11033 | 56.74587 | 31768 ft | 470 kts | 306° |
| 2026-04-24 13:31 | 48.15572 | 56.67539 | 31769 ft | 470 kts | 306° |
| 2026-04-24 13:32 | 48.20110 | 56.60474 | 31804 ft | 470 kts | 306° |
| 2026-04-24 13:32 | 48.24650 | 56.53386 | 31778 ft | 471 kts | 306° |
| 2026-04-24 13:33 | 48.29187 | 56.46283 | 31779 ft | 472 kts | 306° |
| 2026-04-24 13:33 | 48.33725 | 56.39160 | 31778 ft | 472 kts | 306° |
| 2026-04-24 13:34 | 48.38258 | 56.32026 | 31802 ft | 472 kts | 305° |
| 2026-04-24 13:34 | 48.42798 | 56.24859 | 31788 ft | 473 kts | 305° |
| 2026-04-24 13:35 | 48.47331 | 56.17684 | 31794 ft | 473 kts | 305° |
| 2026-04-24 13:35 | 48.51866 | 56.10487 | 31790 ft | 473 kts | 305° |
| 2026-04-24 13:36 | 48.56397 | 56.03276 | 31805 ft | 474 kts | 304° |
| 2026-04-24 13:36 | 48.60931 | 55.96038 | 31820 ft | 475 kts | 304° |
| 2026-04-24 13:37 | 48.65464 | 55.88784 | 31804 ft | 474 kts | 304° |
| 2026-04-24 13:37 | 48.69984 | 55.81530 | 31803 ft | 473 kts | 304° |
| 2026-04-24 13:38 | 48.74487 | 55.74285 | 31805 ft | 472 kts | 304° |
| 2026-04-24 13:38 | 48.78947 | 55.67086 | 31808 ft | 471 kts | 304° |
| 2026-04-24 13:39 | 48.83424 | 55.59839 | 31813 ft | 471 kts | 304° |
| 2026-04-24 13:39 | 48.87896 | 55.52580 | 31862 ft | 471 kts | 303° |
| 2026-04-24 13:40 | 48.92374 | 55.45288 | 31826 ft | 472 kts | 303° |
| 2026-04-24 13:40 | 48.96852 | 55.37979 | 31816 ft | 472 kts | 303° |
| 2026-04-24 13:41 | 49.01326 | 55.30658 | 31826 ft | 472 kts | 303° |
| 2026-04-24 13:41 | 49.05794 | 55.23324 | 31843 ft | 472 kts | 303° |
| 2026-04-24 13:42 | 49.10260 | 55.15973 | 31828 ft | 472 kts | 303° |
| 2026-04-24 13:42 | 49.14715 | 55.08618 | 31825 ft | 472 kts | 303° |
| 2026-04-24 13:43 | 49.19160 | 55.01261 | 31824 ft | 471 kts | 303° |
| 2026-04-24 13:43 | 49.22847 | 54.95140 | 31848 ft | 471 kts | 302° |
| 2026-04-24 13:44 | 49.27284 | 54.87755 | 31830 ft | 471 kts | 302° |
| 2026-04-24 13:44 | 49.31719 | 54.80350 | 31861 ft | 473 kts | 302° |
| 2026-04-24 13:45 | 49.33946 | 54.76623 | 32124 ft | 473 kts | 302° |
| 2026-04-24 13:45 | 49.36163 | 54.72913 | 32529 ft | 470 kts | 302° |
| 2026-04-24 13:45 | 49.38365 | 54.69227 | 33039 ft | 467 kts | 302° |
| 2026-04-24 13:45 | 49.40554 | 54.65554 | 33341 ft | 466 kts | 302° |
| 2026-04-24 13:46 | 49.42737 | 54.61882 | 33645 ft | 465 kts | 302° |
| 2026-04-24 13:46 | 49.44919 | 54.58203 | 33761 ft | 467 kts | 302° |
| 2026-04-24 13:46 | 49.49284 | 54.50828 | 33820 ft | 465 kts | 302° |
| 2026-04-24 13:47 | 49.53625 | 54.43482 | 33828 ft | 463 kts | 302° |
| 2026-04-24 13:47 | 49.57949 | 54.36139 | 33816 ft | 463 kts | 302° |
| 2026-04-24 13:48 | 49.62271 | 54.28777 | 33826 ft | 464 kts | 302° |
| 2026-04-24 13:48 | 49.66601 | 54.21382 | 33823 ft | 465 kts | 302° |
| 2026-04-24 13:49 | 49.70935 | 54.13957 | 33835 ft | 466 kts | 302° |
| 2026-04-24 13:49 | 49.75282 | 54.06490 | 33828 ft | 469 kts | 302° |
| 2026-04-24 13:50 | 49.79645 | 53.98975 | 33821 ft | 470 kts | 302° |
| 2026-04-24 13:50 | 49.84016 | 53.91425 | 33814 ft | 471 kts | 302° |
| 2026-04-24 13:51 | 49.88359 | 53.83904 | 33814 ft | 471 kts | 302° |
| 2026-04-24 13:51 | 49.92732 | 53.76305 | 33805 ft | 473 kts | 302° |
| 2026-04-24 13:52 | 49.97114 | 53.68666 | 33798 ft | 474 kts | 302° |
| 2026-04-24 13:52 | 50.01494 | 53.61013 | 33800 ft | 474 kts | 301° |
| 2026-04-24 13:53 | 50.05870 | 53.53341 | 33810 ft | 474 kts | 301° |
| 2026-04-24 13:53 | 50.10250 | 53.45638 | 33805 ft | 476 kts | 302° |
| 2026-04-24 13:54 | 50.14634 | 53.37906 | 33802 ft | 476 kts | 302° |
| 2026-04-24 13:54 | 50.19019 | 53.30150 | 33798 ft | 477 kts | 302° |
| 2026-04-24 13:55 | 50.23398 | 53.22381 | 33813 ft | 477 kts | 302° |
| 2026-04-24 13:55 | 50.27777 | 53.14587 | 33798 ft | 477 kts | 302° |
| 2026-04-24 13:56 | 50.32152 | 53.06778 | 33789 ft | 477 kts | 302° |
| 2026-04-24 13:56 | 50.36518 | 52.98962 | 33790 ft | 476 kts | 302° |
| 2026-04-24 13:57 | 50.40874 | 52.91139 | 33788 ft | 476 kts | 302° |
| 2026-04-24 13:57 | 50.45220 | 52.83309 | 33780 ft | 476 kts | 302° |
| 2026-04-24 13:58 | 50.49561 | 52.75465 | 33779 ft | 476 kts | 302° |
| 2026-04-24 13:58 | 50.53893 | 52.67613 | 33777 ft | 475 kts | 301° |
| 2026-04-24 13:59 | 50.58220 | 52.59747 | 33807 ft | 476 kts | 302° |
| 2026-04-24 13:59 | 50.62546 | 52.51855 | 33779 ft | 476 kts | 302° |
| 2026-04-24 14:00 | 50.65408 | 52.46624 | 33764 ft | 476 kts | 301° |